BIIS

Ísafjörður Airport

Ísafjörður, Iceland
METAR BIIS 152100Z VRB03KT 9999 FEW012 OVC020 09/06 Q0992
Observed Flight Rules
Aug-15 @ 21:00 UTC (9 hours ago) Marginal Visual Flight Rules
Wind Visibility Clouds
Variable at 3 knots 10,000+ meters
  • Few at 1,200' AGL
  • Overcast at 2,000' AGL
Temperatures Readings
Current 9°C / 48°F
Dewpoint 6°C / 43°F
Humidity 82%
Altimeter 29.29" Hg
Pressure 992 hPa
Elevation 3
METAR BIIS 152100Z VRB03KT 9999 FEW012 OVC020 09/06 Q0992
Observed Flight Rules
Aug-15 @ 21:00 UTC
(9 hours ago)
MVFR
Wind Visibility
Variable at 3 knots 10,000+ meters
Clouds
  • Few at 1,200' AGL
  • Overcast at 2,000' AGL
Temperature Dewpoint
9°C / 48°F 6°C / 43°F
Humidity Altimeter Pressure
82% 29.29" Hg 992 hPa